Craig Municipal Airport
KCRG : now visible

Aeroporto :











RITROVATECI SU...

 
LOGIN :

Iscrizione | Disclaimer

   EN    FR    IT 

 









Sommario :    VFR   VFR Marginale   IFR   IFR Intensivo   IFR Molto Intensivo
Visibilità : 
Base nubi : 
>= 8 km
>= 3000ft
5 / 8 km
1000 / 3000 ft
1500m / 5 km
500 / 1000 ft
800 / 1500m
200 / 500 ft
< 800m
< 200 ft
Simboli :   Temporali  Nebbia  Neve Forte  Precipitazioni Forti  Vento > 20 kt






- Altitudine del aeroporto : 41 ft


KCRG - Craig Municipal

ULTIMO METAR :
  • 272153Z 24005KT 10SM OVC090 18/06 A2990 RMK AO2 SLP124 T01780061

METARs OBSOLETI :
  • 272053Z 23006KT 10SM SCT080 OVC090 17/07 A2990 RMK AO2 RAE02 SLP124 P0000 60000 T01720067 56013
  • 271953Z 20006KT 10SM -RA OVC080 17/06 A2991 RMK AO2 RAB00 SLP127 P0000 T01670056

TAF KCRG
Valido dal 27 a 18 ore il 28 a 18 ore UTC


271739Z 2718/2818 VRB04KT P6SM VCSH FEW040 OVC080
FM280000 28003KT P6SM FEW025 BKN060
FM280700 33004KT P6SM FEW040 SCT250
FM281400 35006KT P6SM FEW250



MetMap, La meteo Aeronautica in un colpo d'occhio ! - Copyright ORBIFLY Dicembre 2007 - Disclaimer

ORBIFLY MET'MAP TEAM :

Programmazione e sviluppo : Alexandra Zaïnal
Concezione : Baudouin d'Aumeries
Aiuto per la programmazione : Marc-Olivier Méhu
Supporto tecnico e logistico : Manuel Goepfert
Aiuto per la traduzione : Arnaldo La Scala

Contatto : metmap@orbifly.com




FONTI E CREDITI :

   NOAA       Earth
Advisory